Time;durP1;ratioP1;P1;durP2;ratioP2;P2;SDS_P1;SDS_P2;PMS_P1;PMS_P2;Temp;Humidity;BMP_temperature;BMP_pressure;BME280_temperature;BME280_humidity;BME280_pressure;Samples;Min_cycle;Max_cycle;Signal;HPM_P1;HPM_P2
2021/01/29 00:00:58;;;;;;;4.97;4.47;;;;;;;9.27;41.16;99985.91;4874712;28;97216;-75
2021/01/29 00:03:28;;;;;;;5.47;5.13;;;;;;;9.43;40.12;99996.28;4893170;28;98181;-78
2021/01/29 00:06:15;;;;;;;4.55;4.25;;;;;;;9.41;40.43;100002.25;4889913;28;97055;-76
2021/01/29 00:08:42;;;;;;;4.90;4.53;;;;;;;9.39;40.36;99996.97;4891323;28;98115;-77
2021/01/29 00:11:10;;;;;;;4.72;4.50;;;;;;;9.36;40.86;99994.19;4885228;28;97978;-76
2021/01/29 00:13:37;;;;;;;5.05;4.63;;;;;;;9.36;40.20;99986.31;4889245;28;99428;-78
2021/01/29 00:16:10;;;;;;;6.00;4.70;;;;;;;9.35;40.79;99974.06;4875828;28;100822;-76
2021/01/29 00:18:37;;;;;;;4.90;4.50;;;;;;;9.32;40.80;99988.75;4870442;28;97193;-77
2021/01/29 00:21:05;;;;;;;5.00;4.63;;;;;;;9.30;40.97;99986.06;4887011;28;96866;-76
2021/01/29 00:23:33;;;;;;;6.80;4.82;;;;;;;9.28;40.34;99981.56;4869206;28;97389;-77
2021/01/29 00:26:00;;;;;;;5.18;4.90;;;;;;;9.27;40.70;99988.53;4888174;28;98379;-76
2021/01/29 00:28:28;;;;;;;5.18;4.40;;;;;;;9.26;40.56;99999.84;4890935;28;96834;-75
2021/01/29 00:30:56;;;;;;;4.25;3.90;;;;;;;9.28;40.54;100010.38;4889979;28;97049;-76
2021/01/29 00:33:26;;;;;;;6.18;4.95;;;;;;;9.42;39.91;100011.91;4889133;28;97965;-78
2021/01/29 00:35:53;;;;;;;4.88;4.45;;;;;;;9.39;40.69;100007.44;4876407;28;100410;-77
2021/01/29 00:38:21;;;;;;;5.63;5.15;;;;;;;9.37;40.12;99998.59;4860620;28;97368;-76
2021/01/29 00:40:48;;;;;;;5.13;4.72;;;;;;;9.33;40.50;99999.28;4892453;28;96851;-77
2021/01/29 00:43:16;;;;;;;5.82;5.35;;;;;;;9.34;40.18;99994.97;4885334;28;99061;-76
2021/01/29 00:45:45;;;;;;;4.63;4.30;;;;;;;9.32;40.79;99999.22;4889786;28;97743;-77
2021/01/29 00:48:13;;;;;;;7.05;5.28;;;;;;;9.47;39.85;99992.06;4873661;28;97190;-76
2021/01/29 00:50:42;;;;;;;5.97;5.47;;;;;;;9.39;40.25;99985.56;4876657;28;97076;-78
2021/01/29 00:53:10;;;;;;;5.45;5.07;;;;;;;9.37;40.25;99988.13;4874811;28;98049;-77
2021/01/29 00:55:38;;;;;;;5.65;5.25;;;;;;;9.43;40.61;99985.78;4874655;28;97565;-76
2021/01/29 00:58:12;;;;;;;5.05;4.70;;;;;;;9.48;40.64;99976.41;4872692;28;97288;-76
2021/01/29 01:00:55;;;;;;;6.68;4.90;;;;;;;9.47;40.22;99969.34;4873615;28;97006;-77
2021/01/29 01:03:31;;;;;;;4.97;4.55;;;;;;;9.42;39.86;99969.97;4872178;28;97864;-77
2021/01/29 01:06:00;;;;;;;5.45;4.95;;;;;;;9.36;40.12;99967.09;4857243;28;99908;-76
2021/01/29 01:08:44;;;;;;;5.70;5.22;;;;;;;9.34;40.09;99960.88;4872365;28;97336;-76
2021/01/29 01:11:25;;;;;;;5.22;4.82;;;;;;;9.31;40.77;99960.72;4872605;28;97663;-77
2021/01/29 01:14:21;;;;;;;5.88;5.38;;;;;;;9.25;40.42;99945.66;4872771;28;98307;-77
2021/01/29 01:17:07;;;;;;;7.15;5.60;;;;;;;9.40;40.40;99950.69;4888672;28;97838;-75
2021/01/29 01:19:56;;;;;;;5.72;5.22;;;;;;;9.32;40.31;99942.47;4857847;28;97842;-76
2021/01/29 01:22:25;;;;;;;6.03;5.45;;;;;;;9.31;40.03;99945.91;4874035;28;97284;-76
2021/01/29 01:25:08;;;;;;;5.38;4.97;;;;;;;9.31;40.83;99950.25;4887055;28;97917;-76
2021/01/29 01:27:36;;;;;;;6.28;4.90;;;;;;;9.31;40.30;99940.66;4874095;28;98044;-76
2021/01/29 01:30:33;;;;;;;5.35;4.95;;;;;;;9.31;40.38;99942.38;4874531;28;97542;-76
2021/01/29 01:33:06;;;;;;;5.03;4.72;;;;;;;9.29;40.09;99939.69;4873798;28;97740;-76
2021/01/29 01:36:00;;;;;;;6.07;5.35;;;;;;;9.30;40.74;99936.28;4887726;28;98202;-76
2021/01/29 01:38:37;;;;;;;5.68;5.07;;;;;;;9.31;40.58;99935.44;4889220;28;99347;-76
2021/01/29 01:41:04;;;;;;;7.75;5.30;;;;;;;9.31;40.56;99935.44;4872723;28;97861;-76
2021/01/29 01:43:42;;;;;;;6.25;5.60;;;;;;;9.28;40.11;99934.41;4857684;28;97401;-76
2021/01/29 01:46:30;;;;;;;5.93;5.38;;;;;;;9.26;40.50;99936.06;4883047;28;98888;-76
2021/01/29 01:49:17;;;;;;;6.40;5.57;;;;;;;9.22;40.34;99935.03;4889483;28;99842;-77
2021/01/29 01:52:06;;;;;;;5.47;5.05;;;;;;;9.18;40.20;99948.81;4889115;28;96981;-76
2021/01/29 01:54:58;;;;;;;5.55;5.15;;;;;;;9.16;40.53;99935.66;4887906;28;97590;-76
2021/01/29 01:57:27;;;;;;;5.22;4.85;;;;;;;9.14;40.49;99941.66;4871277;28;99461;-75
2021/01/29 02:00:23;;;;;;;5.88;5.47;;;;;;;9.12;40.35;99928.47;4872339;28;99101;-75
2021/01/29 02:03:25;;;;;;;7.85;5.45;;;;;;;9.14;40.89;99925.94;4880114;28;97109;-77
2021/01/29 02:05:53;;;;;;;5.38;5.00;;;;;;;9.12;40.93;99922.34;4892755;28;97588;-77
2021/01/29 02:08:46;;;;;;;6.00;5.57;;;;;;;9.11;40.38;99913.59;4871432;28;99046;-76
2021/01/29 02:11:43;;;;;;;4.65;4.35;;;;;;;9.07;40.78;99903.78;4875666;28;99143;-76
2021/01/29 02:14:37;;;;;;;5.22;4.55;;;;;;;9.04;40.70;99913.25;4890389;28;97154;-77
2021/01/29 02:17:19;;;;;;;5.97;5.43;;;;;;;9.15;40.02;99901.53;4871610;28;100180;-76
2021/01/29 02:20:43;;;;;;;5.25;4.80;;;;;;;9.07;40.28;99900.28;4889930;28;98778;-76
2021/01/29 02:24:15;;;;;;;5.40;4.90;;;;;;;9.00;40.54;99885.13;4872195;28;97782;-77
2021/01/29 02:27:02;;;;;;;5.68;5.35;;;;;;;9.04;40.13;99887.97;4848347;28;97028;-77
2021/01/29 02:29:42;;;;;;;5.80;5.18;;;;;;;9.06;40.45;99875.81;4871976;28;97165;-76
2021/01/29 02:32:43;;;;;;;6.57;5.80;;;;;;;9.17;40.21;99876.28;4889029;28;98953;-76
2021/01/29 02:35:44;;;;;;;5.65;4.97;;;;;;;9.09;40.31;99860.22;4870581;28;97917;-78
2021/01/29 02:38:44;;;;;;;7.05;4.80;;;;;;;9.05;40.35;99858.31;4888742;28;97832;-76
2021/01/29 02:41:18;;;;;;;6.35;5.75;;;;;;;9.05;40.41;99854.81;4870230;28;98791;-75
2021/01/29 02:44:07;;;;;;;5.18;4.72;;;;;;;9.05;40.71;99842.59;4890186;28;101321;-76
2021/01/29 02:47:18;;;;;;;5.47;5.00;;;;;;;9.06;40.47;99838.25;4887716;28;98145;-77
2021/01/29 02:50:46;;;;;;;5.00;4.60;;;;;;;9.01;40.98;99827.56;4878455;28;97115;-76
2021/01/29 02:53:38;;;;;;;5.30;4.90;;;;;;;9.02;40.69;99813.66;4891707;28;97474;-77
2021/01/29 02:56:29;;;;;;;4.93;4.63;;;;;;;9.02;41.00;99812.75;4887973;28;97197;-76
2021/01/29 02:59:18;;;;;;;5.20;4.82;;;;;;;9.00;40.98;99802.22;4888946;28;97961;-75
2021/01/29 03:02:19;;;;;;;5.22;4.82;;;;;;;8.98;41.12;99802.97;4889918;28;98281;-77
2021/01/29 03:05:10;;;;;;;5.88;5.30;;;;;;;8.96;40.91;99807.22;4867495;28;98942;-76
2021/01/29 03:07:41;;;;;;;4.88;4.53;;;;;;;8.95;41.16;99808.06;4887087;28;97882;-76
2021/01/29 03:10:34;;;;;;;4.65;4.38;;;;;;;8.96;40.51;99802.00;4886388;28;97957;-77
2021/01/29 03:13:26;;;;;;;4.88;4.55;;;;;;;9.00;40.93;99801.31;4888560;28;97360;-76
2021/01/29 03:16:15;;;;;;;5.22;4.45;;;;;;;9.00;40.58;99790.81;4887903;28;96939;-76
2021/01/29 03:19:07;;;;;;;5.57;4.78;;;;;;;8.97;40.70;99782.84;4887901;28;98940;-75
2021/01/29 03:21:59;;;;;;;5.40;5.10;;;;;;;8.96;40.73;99781.03;4889003;28;97069;-76
2021/01/29 03:24:50;;;;;;;5.55;5.13;;;;;;;8.92;40.86;99769.53;4889034;28;97256;-76
2021/01/29 03:27:53;;;;;;;5.68;5.28;;;;;;;8.94;41.14;99767.00;4886234;28;96878;-75
2021/01/29 03:30:43;;;;;;;5.72;5.28;;;;;;;8.92;40.69;99768.66;4871600;28;100400;-76
2021/01/29 03:33:31;;;;;;;5.07;4.78;;;;;;;8.91;40.58;99766.88;4887761;28;97569;-75
2021/01/29 03:36:19;;;;;;;5.38;4.88;;;;;;;8.91;40.80;99759.91;4886420;28;97442;-76
2021/01/29 03:39:08;;;;;;;5.82;5.43;;;;;;;8.92;40.65;99753.81;4889233;28;97370;-76
2021/01/29 03:42:00;;;;;;;5.20;4.97;;;;;;;8.92;40.73;99751.22;4888222;28;99084;-77
2021/01/29 03:44:49;;;;;;;5.88;5.47;;;;;;;8.93;40.76;99746.88;4887388;28;101859;-77
2021/01/29 03:47:57;;;;;;;6.35;5.85;;;;;;;8.95;41.01;99747.84;4873026;28;97142;-77
2021/01/29 03:50:48;;;;;;;5.30;4.90;;;;;;;8.91;41.16;99732.81;4871419;28;97286;-76
2021/01/29 03:53:41;;;;;;;5.53;5.03;;;;;;;8.88;40.88;99720.50;4890022;28;98039;-76
2021/01/29 03:56:33;;;;;;;5.30;4.90;;;;;;;8.87;40.97;99720.41;4888906;28;96806;-76
2021/01/29 03:59:25;;;;;;;4.75;4.53;;;;;;;8.84;41.02;99696.72;4889628;28;97374;-77
2021/01/29 04:02:15;;;;;;;4.88;4.55;;;;;;;8.84;41.06;99694.13;4893853;28;97582;-76
2021/01/29 04:05:09;;;;;;;5.30;4.95;;;;;;;8.78;40.94;99689.50;4894450;28;99194;-76
2021/01/29 04:07:59;;;;;;;4.95;4.57;;;;;;;8.79;40.91;99675.63;4890564;28;97692;-76
2021/01/29 04:10:48;;;;;;;5.38;4.90;;;;;;;8.80;40.47;99671.25;4889421;28;97459;-77
2021/01/29 04:13:42;;;;;;;5.32;4.97;;;;;;;8.76;40.84;99659.75;4890665;28;96833;-76
2021/01/29 04:16:16;;;;;;;5.18;4.88;;;;;;;8.79;41.57;99649.44;4883861;23;99363;-76
2021/01/29 04:18:46;;;;;;;5.28;4.80;;;;;;;8.79;40.98;99648.53;4887000;28;97770;-76
2021/01/29 04:21:17;;;;;;;4.70;4.38;;;;;;;8.76;41.28;99637.91;4894573;28;97805;-77
2021/01/29 04:24:07;;;;;;;5.25;4.78;;;;;;;8.73;40.92;99632.56;4892217;28;96794;-76
2021/01/29 04:26:40;;;;;;;5.38;4.70;;;;;;;8.71;41.42;99627.25;4893502;28;99917;-76
2021/01/29 04:29:10;;;;;;;4.90;4.60;;;;;;;8.66;41.33;99625.28;4874818;28;99188;-76
2021/01/29 04:31:38;;;;;;;4.63;4.35;;;;;;;8.64;41.29;99629.56;4895382;28;97675;-76
2021/01/29 04:34:09;;;;;;;4.65;4.35;;;;;;;8.62;41.26;99626.88;4896227;28;97736;-76
2021/01/29 04:36:38;;;;;;;7.57;6.22;;;;;;;8.63;41.37;99619.94;4892911;28;99574;-77
2021/01/29 04:39:08;;;;;;;6.97;5.63;;;;;;;8.63;41.19;99607.72;4896646;28;99280;-76
2021/01/29 04:41:55;;;;;;;5.35;4.95;;;;;;;8.66;41.00;99613.09;4893895;28;97470;-76
2021/01/29 04:44:31;;;;;;;5.32;4.93;;;;;;;8.64;41.25;99604.28;4896135;28;97816;-75
2021/01/29 04:47:08;;;;;;;4.85;4.57;;;;;;;8.65;41.27;99599.94;4894200;28;99279;-76
2021/01/29 04:50:05;;;;;;;6.03;5.57;;;;;;;8.73;40.92;99582.81;4889173;28;99116;-78
2021/01/29 04:53:00;;;;;;;5.28;4.88;;;;;;;8.68;40.95;99573.88;4894367;28;96955;-75
2021/01/29 04:55:37;;;;;;;5.60;5.10;;;;;;;8.64;41.29;99578.09;4887961;28;97474;-77
2021/01/29 04:58:07;;;;;;;8.40;6.30;;;;;;;8.62;41.25;99582.38;4873250;28;97873;-76
2021/01/29 05:01:35;;;;;;;8.13;6.97;;;;;;;8.60;41.43;99577.91;4891810;28;99296;-76
2021/01/29 05:05:02;;;;;;;5.93;4.90;;;;;;;8.54;41.21;99556.75;4806562;28;100481;-77
2021/01/29 05:08:19;;;;;;;8.30;7.22;;;;;;;8.56;41.00;99548.09;4850855;28;97180;-76
2021/01/29 05:11:19;;;;;;;9.52;6.20;;;;;;;8.54;40.77;99543.66;4852282;28;98079;-75
2021/01/29 05:14:12;;;;;;;8.10;6.90;;;;;;;8.56;41.43;99552.47;4881091;28;97618;-76
2021/01/29 05:17:19;;;;;;;7.13;6.10;;;;;;;8.66;41.19;99541.53;4864295;28;98447;-75
2021/01/29 05:20:05;;;;;;;6.72;5.88;;;;;;;8.73;40.59;99541.84;4871408;28;97273;-76
2021/01/29 05:22:41;;;;;;;6.38;5.57;;;;;;;8.67;40.83;99532.81;4897014;28;97870;-74
2021/01/29 05:25:38;;;;;;;6.50;5.90;;;;;;;8.65;40.92;99529.28;4883450;28;98940;-76
2021/01/29 05:28:24;;;;;;;5.72;5.00;;;;;;;8.60;40.71;99520.31;4882382;28;97519;-76
2021/01/29 05:31:02;;;;;;;5.38;4.88;;;;;;;8.59;40.63;99521.16;4898479;28;97531;-75
2021/01/29 05:33:36;;;;;;;5.57;5.25;;;;;;;8.58;40.88;99519.38;4893567;28;98209;-77
2021/01/29 05:36:12;;;;;;;7.18;6.43;;;;;;;8.58;40.94;99508.91;4881509;28;99434;-77
2021/01/29 05:38:55;;;;;;;8.93;6.68;;;;;;;8.56;40.68;99501.00;4894073;28;97311;-76
2021/01/29 05:42:10;;;;;;;8.10;6.03;;;;;;;8.53;40.93;99499.97;4896323;28;96779;-77
2021/01/29 05:45:20;;;;;;;4.93;4.63;;;;;;;8.49;40.92;99503.28;4894047;28;98239;-77
2021/01/29 05:48:10;;;;;;;5.00;4.68;;;;;;;8.47;41.11;99497.09;4892704;28;98808;-76
2021/01/29 05:50:50;;;;;;;5.32;4.90;;;;;;;8.48;41.19;99504.13;4893689;28;98108;-77
2021/01/29 05:53:39;;;;;;;5.10;4.70;;;;;;;8.47;41.34;99499.72;4882203;28;97167;-77
2021/01/29 05:56:09;;;;;;;7.30;6.60;;;;;;;8.57;40.86;99494.03;4890403;28;97827;-77
2021/01/29 05:58:52;;;;;;;7.35;6.28;;;;;;;8.65;40.61;99493.50;4897294;28;98150;-78
2021/01/29 06:01:44;;;;;;;6.05;5.18;;;;;;;8.58;40.64;99491.47;4895340;28;96919;-76
2021/01/29 06:04:28;;;;;;;5.50;5.00;;;;;;;8.56;40.65;99479.19;4892968;28;97088;-73
2021/01/29 06:07:27;;;;;;;6.22;5.28;;;;;;;8.56;41.08;99481.81;4897490;28;97805;-74
2021/01/29 06:10:26;;;;;;;6.30;5.25;;;;;;;8.53;40.87;99481.66;4890749;28;97945;-74
2021/01/29 06:14:01;;;;;;;5.30;4.82;;;;;;;8.46;40.63;99475.31;4891905;28;97053;-74
2021/01/29 06:16:49;;;;;;;5.05;4.35;;;;;;;8.46;40.94;99471.78;4893093;28;96968;-77
2021/01/29 06:19:37;;;;;;;5.15;4.65;;;;;;;8.47;41.02;99465.69;4894951;28;99353;-75
2021/01/29 06:22:30;;;;;;;5.32;4.95;;;;;;;8.48;40.87;99465.78;4890792;28;99005;-75
2021/01/29 06:25:12;;;;;;;5.25;4.85;;;;;;;8.49;40.87;99457.09;4890520;28;96908;-77
2021/01/29 06:27:59;;;;;;;5.65;5.25;;;;;;;8.50;41.01;99461.50;4891342;28;97651;-76
2021/01/29 06:30:36;;;;;;;5.03;4.72;;;;;;;8.47;40.72;99465.69;4890299;28;97824;-75
2021/01/29 06:33:38;;;;;;;6.53;5.82;;;;;;;8.47;41.13;99460.47;4891574;28;97815;-76
2021/01/29 06:36:11;;;;;;;6.15;5.47;;;;;;;8.44;41.05;99465.59;4888572;28;97229;-74
2021/01/29 06:38:48;;;;;;;6.32;5.82;;;;;;;8.45;41.48;99462.16;4888827;28;97451;-75
2021/01/29 06:42:03;;;;;;;6.00;5.45;;;;;;;8.47;40.89;99463.09;4890832;28;98924;-76
2021/01/29 06:44:48;;;;;;;8.05;6.88;;;;;;;8.53;40.79;99452.88;4864916;28;97915;-75
2021/01/29 06:47:23;;;;;;;9.43;7.85;;;;;;;8.60;40.79;99454.91;4890279;28;96819;-75
2021/01/29 06:50:06;;;;;;;7.40;6.45;;;;;;;8.56;40.81;99440.78;4891377;28;97203;-75
2021/01/29 06:53:02;;;;;;;8.18;6.45;;;;;;;8.56;41.03;99437.31;4889268;28;98987;-75
2021/01/29 06:56:17;;;;;;;7.00;6.35;;;;;;;8.53;41.21;99435.47;4889234;28;99757;-76
2021/01/29 06:58:57;;;;;;;6.45;5.93;;;;;;;8.52;40.81;99435.41;4893042;28;96799;-74
2021/01/29 07:01:40;;;;;;;5.97;5.45;;;;;;;8.53;41.15;99431.94;4888257;28;97060;-75
2021/01/29 07:04:40;;;;;;;6.53;5.80;;;;;;;8.55;40.84;99432.91;4888796;28;98115;-74
2021/01/29 07:07:10;;;;;;;6.63;6.05;;;;;;;8.51;40.84;99425.75;4883749;28;97874;-74
2021/01/29 07:09:55;;;;;;;6.40;5.90;;;;;;;8.46;40.88;99420.34;4888751;28;96818;-74
2021/01/29 07:12:36;;;;;;;8.45;5.95;;;;;;;8.47;40.95;99421.22;4888134;28;97107;-74
2021/01/29 07:15:16;;;;;;;6.00;5.50;;;;;;;8.48;41.12;99420.41;4876004;28;99497;-73
2021/01/29 07:17:55;;;;;;;5.63;5.32;;;;;;;8.45;41.09;99420.31;4872420;28;97786;-74
2021/01/29 07:20:32;;;;;;;5.63;5.22;;;;;;;8.44;40.88;99408.03;4888502;28;96945;-74
2021/01/29 07:23:31;;;;;;;6.25;5.65;;;;;;;8.44;41.38;99400.19;4892572;28;97036;-74
2021/01/29 07:26:23;;;;;;;6.30;5.30;;;;;;;8.43;41.06;99393.19;4889449;28;97280;-73
2021/01/29 07:29:06;;;;;;;5.72;5.30;;;;;;;8.38;41.13;99374.66;4889304;28;99368;-73
2021/01/29 07:31:45;;;;;;;5.38;4.88;;;;;;;8.38;41.03;99376.38;4890651;28;97004;-74
2021/01/29 07:34:29;;;;;;;5.50;5.20;;;;;;;8.33;41.08;99367.47;4892911;28;97566;-73
2021/01/29 07:37:33;;;;;;;5.82;5.43;;;;;;;8.28;41.45;99366.41;4894412;28;98890;-74
2021/01/29 07:40:26;;;;;;;6.60;5.30;;;;;;;8.27;41.42;99349.81;4892008;28;99565;-74
2021/01/29 07:43:08;;;;;;;6.38;5.97;;;;;;;8.27;41.29;99346.31;4888099;28;97810;-75
2021/01/29 07:45:46;;;;;;;9.38;6.72;;;;;;;8.33;41.34;99333.47;4894792;28;97433;-75
2021/01/29 07:48:36;;;;;;;7.95;6.20;;;;;;;8.31;41.02;99324.66;4895757;28;97771;-74
2021/01/29 07:51:08;;;;;;;7.80;5.82;;;;;;;8.33;41.40;99320.38;4895570;28;99332;-73
2021/01/29 07:53:39;;;;;;;7.35;6.20;;;;;;;8.36;41.22;99310.06;4882005;28;97374;-75
2021/01/29 07:56:29;;;;;;;6.28;5.70;;;;;;;8.38;41.23;99298.81;4891635;28;97917;-73
2021/01/29 07:59:26;;;;;;;6.45;5.70;;;;;;;8.39;41.21;99302.31;4897167;28;97130;-74
2021/01/29 08:01:56;;;;;;;6.20;5.70;;;;;;;8.39;41.02;99295.38;4894140;28;97740;-72
2021/01/29 08:04:36;;;;;;;6.53;6.03;;;;;;;8.40;41.35;99285.78;4894546;28;96959;-74
2021/01/29 08:07:14;;;;;;;5.75;5.28;;;;;;;8.36;41.34;99289.13;4878260;28;97559;-73
2021/01/29 08:09:45;;;;;;;6.15;5.55;;;;;;;8.36;41.40;99283.91;4895418;28;98125;-74
2021/01/29 08:12:18;;;;;;;6.03;5.63;;;;;;;8.37;41.39;99277.81;4895049;28;97898;-75
2021/01/29 08:15:10;;;;;;;6.97;6.32;;;;;;;8.35;41.58;99272.53;4877886;28;97142;-75
2021/01/29 08:17:53;;;;;;;5.93;5.40;;;;;;;8.40;41.34;99270.06;4865996;28;97564;-76
2021/01/29 08:20:31;;;;;;;9.35;6.85;;;;;;;8.42;41.34;99277.16;4894057;28;97867;-72
2021/01/29 08:23:07;;;;;;;7.57;6.88;;;;;;;8.42;41.29;99271.94;4895859;28;98979;-73
2021/01/29 08:25:42;;;;;;;8.18;7.50;;;;;;;8.47;41.35;99272.97;4895032;28;98752;-73
2021/01/29 08:28:53;;;;;;;7.82;7.13;;;;;;;8.50;41.03;99264.38;4891819;28;96802;-71
2021/01/29 08:32:00;;;;;;;6.60;6.00;;;;;;;8.51;41.34;99260.91;4888377;28;97958;-72
2021/01/29 08:35:07;;;;;;;8.27;7.28;;;;;;;8.51;41.62;99258.28;4890394;28;97919;-74
2021/01/29 08:37:42;;;;;;;8.70;7.47;;;;;;;8.53;41.19;99247.06;4874377;28;97404;-74
2021/01/29 08:40:22;;;;;;;7.75;7.15;;;;;;;8.54;41.40;99254.06;4894130;28;97278;-74
2021/01/29 08:43:32;;;;;;;7.93;7.30;;;;;;;8.52;41.24;99249.63;4889601;28;98052;-74
2021/01/29 08:46:06;;;;;;;8.15;7.40;;;;;;;8.56;41.21;99249.75;4889563;28;97643;-72
2021/01/29 08:49:05;;;;;;;8.95;7.85;;;;;;;8.57;41.30;99234.97;4873831;28;97003;-73
2021/01/29 08:51:38;;;;;;;10.38;8.40;;;;;;;8.62;41.22;99233.41;4890207;28;97124;-76
2021/01/29 08:54:28;;;;;;;10.90;8.40;;;;;;;8.69;41.00;99233.66;4890000;28;98884;-74
2021/01/29 08:57:00;;;;;;;9.23;7.93;;;;;;;8.74;41.32;99236.47;4889933;28;99657;-74
2021/01/29 08:59:30;;;;;;;8.05;7.25;;;;;;;8.73;41.26;99234.66;4874390;28;96908;-74
2021/01/29 09:02:03;;;;;;;9.82;7.32;;;;;;;8.77;41.00;99233.94;4880890;28;97521;-73
2021/01/29 09:04:34;;;;;;;8.63;7.68;;;;;;;8.80;40.86;99223.56;4899825;28;97843;-73
2021/01/29 09:07:06;;;;;;;10.00;8.23;;;;;;;8.84;41.23;99230.69;4873624;28;98964;-73
2021/01/29 09:09:36;;;;;;;8.25;7.25;;;;;;;8.83;40.67;99226.31;4893310;28;97306;-72
2021/01/29 09:12:06;;;;;;;8.57;7.70;;;;;;;8.87;40.79;99230.78;4890988;28;96905;-73
2021/01/29 09:14:36;;;;;;;9.10;7.95;;;;;;;8.92;41.04;99224.00;4881301;28;99028;-72
2021/01/29 09:17:06;;;;;;;8.32;7.50;;;;;;;8.95;40.89;99218.88;4867337;28;99412;-72
2021/01/29 09:19:35;;;;;;;7.75;7.05;;;;;;;8.98;41.12;99224.19;4886555;28;96872;-73
2021/01/29 09:22:14;;;;;;;8.45;7.55;;;;;;;9.02;40.71;99216.53;4893021;28;96930;-72
2021/01/29 09:24:47;;;;;;;7.75;7.00;;;;;;;9.07;40.91;99211.41;4891957;28;97739;-73
2021/01/29 09:27:32;;;;;;;7.80;7.10;;;;;;;9.11;40.46;99213.31;4867727;28;100597;-71
2021/01/29 09:30:03;;;;;;;6.47;5.97;;;;;;;9.16;40.62;99216.97;4887979;28;96875;-73
2021/01/29 09:32:43;;;;;;;7.80;6.95;;;;;;;9.20;40.60;99211.00;4888479;28;99111;-73
2021/01/29 09:35:15;;;;;;;7.65;7.03;;;;;;;9.21;40.46;99204.94;4889684;28;98366;-73
2021/01/29 09:37:47;;;;;;;8.55;7.75;;;;;;;9.25;40.67;99201.59;4889537;28;98389;-72
2021/01/29 09:40:20;;;;;;;7.60;6.80;;;;;;;9.26;40.40;99207.69;4891034;28;96972;-72
2021/01/29 09:42:55;;;;;;;7.97;7.22;;;;;;;9.31;40.80;99204.38;4891741;28;97738;-72
2021/01/29 09:45:24;;;;;;;8.55;6.97;;;;;;;9.36;40.15;99212.41;4889554;28;98544;-73
2021/01/29 09:47:57;;;;;;;7.65;6.65;;;;;;;9.38;40.67;99208.97;4882433;28;99091;-72
2021/01/29 09:50:26;;;;;;;7.63;6.95;;;;;;;9.42;40.51;99203.00;4891387;28;97610;-71
2021/01/29 09:53:06;;;;;;;8.88;7.13;;;;;;;9.45;40.35;99195.22;4890447;28;97394;-72
2021/01/29 09:55:38;;;;;;;6.32;5.72;;;;;;;9.49;40.27;99191.00;4887617;28;99963;-70
2021/01/29 09:58:13;;;;;;;6.78;6.15;;;;;;;9.59;39.98;99195.66;4890966;28;99103;-71
2021/01/29 10:00:44;;;;;;;7.18;6.57;;;;;;;9.59;40.13;99182.56;4888559;28;97502;-71
2021/01/29 10:03:16;;;;;;;7.63;6.90;;;;;;;9.61;39.51;99181.78;4889401;28;97269;-72
2021/01/29 10:05:48;;;;;;;6.63;6.03;;;;;;;9.68;40.35;99177.59;4891328;28;99174;-72
2021/01/29 10:08:21;;;;;;;7.03;5.50;;;;;;;9.70;40.29;99175.91;4892492;28;97874;-72
2021/01/29 10:10:51;;;;;;;6.38;5.88;;;;;;;9.72;40.02;99180.38;4888914;28;97990;-69
2021/01/29 10:13:37;;;;;;;6.32;5.80;;;;;;;9.81;39.55;99180.66;4890358;28;97699;-73
2021/01/29 10:16:11;;;;;;;6.20;5.53;;;;;;;9.85;39.83;99172.00;4888445;28;97771;-72
2021/01/29 10:19:10;;;;;;;6.03;5.50;;;;;;;9.87;39.66;99170.31;4889460;28;97660;-73
2021/01/29 10:22:05;;;;;;;5.95;5.38;;;;;;;9.87;39.16;99170.31;4881434;28;97802;-74
2021/01/29 10:24:38;;;;;;;5.28;4.88;;;;;;;9.81;39.62;99167.53;4892479;28;96977;-74
2021/01/29 10:27:10;;;;;;;5.32;4.82;;;;;;;9.81;39.07;99169.28;4889796;28;97621;-72
2021/01/29 10:29:39;;;;;;;5.88;5.38;;;;;;;9.84;40.00;99154.53;4895553;28;97851;-74
2021/01/29 10:32:11;;;;;;;5.00;4.70;;;;;;;9.89;39.30;99146.81;4886675;28;97179;-72
2021/01/29 10:34:42;;;;;;;5.40;5.00;;;;;;;9.92;39.24;99142.53;4883279;28;97394;-74
2021/01/29 10:37:19;;;;;;;6.47;5.03;;;;;;;9.99;39.03;99135.72;4889585;28;98637;-71
2021/01/29 10:39:56;;;;;;;5.78;4.47;;;;;;;10.00;38.85;99141.00;4888715;28;97755;-73
2021/01/29 10:42:27;;;;;;;4.78;4.55;;;;;;;10.01;38.54;99132.31;4887386;28;97672;-72
2021/01/29 10:44:55;;;;;;;5.20;4.82;;;;;;;10.03;38.73;99129.72;4870662;28;97885;-73
2021/01/29 10:47:29;;;;;;;5.03;4.63;;;;;;;10.03;38.54;99120.13;4888140;28;98505;-73
2021/01/29 10:49:58;;;;;;;4.65;4.32;;;;;;;10.05;39.05;99115.78;4885392;28;98005;-73
2021/01/29 10:52:37;;;;;;;4.80;4.40;;;;;;;10.11;38.01;99118.63;4885551;28;97141;-73
2021/01/29 10:55:16;;;;;;;4.78;4.30;;;;;;;10.13;37.82;99119.56;4884759;28;97590;-73
2021/01/29 10:57:49;;;;;;;4.45;4.13;;;;;;;10.14;38.37;99108.19;4883278;28;98050;-74
2021/01/29 11:00:19;;;;;;;4.75;4.15;;;;;;;10.11;38.54;99102.88;4885424;28;99040;-73
2021/01/29 11:02:49;;;;;;;4.65;4.45;;;;;;;10.09;37.85;99103.72;4884166;28;98231;-74
2021/01/29 11:05:20;;;;;;;4.82;4.53;;;;;;;10.06;38.26;99109.72;4888640;28;97379;-75
2021/01/29 11:07:50;;;;;;;4.07;3.78;;;;;;;10.09;37.84;99108.94;4883800;28;97816;-74
2021/01/29 11:10:30;;;;;;;4.32;4.03;;;;;;;10.08;37.97;99115.00;4887101;28;99003;-75
2021/01/29 11:13:02;;;;;;;4.10;3.80;;;;;;;10.07;37.95;99105.38;4886357;28;97429;-74
2021/01/29 11:15:38;;;;;;;3.33;3.20;;;;;;;10.04;37.79;99108.78;4886387;28;97156;-71
2021/01/29 11:18:14;;;;;;;3.28;3.17;;;;;;;9.99;36.62;99107.75;4884331;28;99023;-74
2021/01/29 11:20:41;;;;;;;3.75;3.45;;;;;;;9.99;38.23;99102.53;4886121;28;97887;-74
2021/01/29 11:23:22;;;;;;;4.20;4.00;;;;;;;9.98;36.48;99100.72;4883926;28;97361;-75
2021/01/29 11:25:59;;;;;;;3.60;3.40;;;;;;;9.97;37.52;99098.06;4882005;28;97572;-73
2021/01/29 11:28:34;;;;;;;3.72;3.53;;;;;;;9.93;37.46;99089.22;4879015;28;97909;-74
2021/01/29 11:31:06;;;;;;;3.83;3.63;;;;;;;9.93;37.67;99086.59;4885374;28;98271;-74
2021/01/29 11:33:57;;;;;;;4.28;4.07;;;;;;;9.92;35.40;99086.56;4883946;28;97789;-74
2021/01/29 11:36:31;;;;;;;3.63;3.47;;;;;;;9.94;37.58;99091.03;4885372;28;98306;-73
2021/01/29 11:39:06;;;;;;;3.60;3.47;;;;;;;9.93;35.27;99081.34;4865447;28;98913;-73
2021/01/29 11:41:44;;;;;;;3.35;3.17;;;;;;;9.95;37.47;99076.16;4881157;28;98007;-74
2021/01/29 11:44:16;;;;;;;4.53;3.78;;;;;;;9.92;36.22;99079.59;4882508;28;98255;-74
2021/01/29 11:46:49;;;;;;;3.80;3.60;;;;;;;9.93;37.06;99078.72;4865216;28;97763;-73
2021/01/29 11:49:20;;;;;;;3.42;3.30;;;;;;;9.93;37.79;99083.09;4881341;28;98496;-72
2021/01/29 11:51:58;;;;;;;3.38;3.28;;;;;;;9.90;36.69;99086.53;4883140;28;100073;-73
2021/01/29 11:54:34;;;;;;;3.35;3.15;;;;;;;9.82;37.56;99074.91;4884001;28;97882;-73
2021/01/29 11:57:05;;;;;;;3.08;2.97;;;;;;;9.82;37.28;99080.16;4878050;28;97946;-73
2021/01/29 11:59:42;;;;;;;3.05;3.00;;;;;;;9.77;39.16;99078.25;4882656;28;102321;-72
2021/01/29 12:02:22;;;;;;;3.03;2.92;;;;;;;9.74;38.23;99079.06;4881900;28;98714;-74
2021/01/29 12:04:54;;;;;;;3.10;3.00;;;;;;;9.65;38.84;99078.78;4870758;28;98151;-72
2021/01/29 12:07:23;;;;;;;3.88;3.75;;;;;;;9.60;38.15;99072.53;4880391;28;97972;-75
2021/01/29 12:09:57;;;;;;;3.00;2.90;;;;;;;9.51;38.64;99077.50;4873383;28;99284;-72
2021/01/29 12:12:31;;;;;;;3.03;3.00;;;;;;;9.47;38.88;99082.59;4883107;28;100047;-72
2021/01/29 12:15:09;;;;;;;3.00;2.90;;;;;;;9.36;38.44;99078.78;4870979;28;98992;-72
2021/01/29 12:17:36;;;;;;;3.03;3.03;;;;;;;9.26;38.89;99067.13;4879572;28;98075;-74
2021/01/29 12:20:26;;;;;;;2.90;2.90;;;;;;;9.12;39.79;99068.44;4880215;28;99841;-71
2021/01/29 12:23:06;;;;;;;3.10;3.00;;;;;;;9.01;40.32;99065.44;4879418;28;99382;-74
2021/01/29 12:25:58;;;;;;;3.72;3.47;;;;;;;8.95;40.37;99069.63;4884855;28;97692;-73
2021/01/29 12:28:34;;;;;;;3.40;3.20;;;;;;;8.92;40.25;99080.00;4885211;28;97875;-72
2021/01/29 12:31:10;;;;;;;3.20;3.10;;;;;;;8.90;40.35;99081.69;4885422;28;97994;-73
2021/01/29 12:33:48;;;;;;;3.70;3.60;;;;;;;8.86;40.46;99069.34;4885848;28;98158;-72
2021/01/29 12:36:19;;;;;;;3.47;3.38;;;;;;;8.84;40.03;99060.53;4886945;28;97378;-73
2021/01/29 12:38:50;;;;;;;3.10;3.00;;;;;;;8.78;40.39;99065.56;4891815;28;97957;-74
2021/01/29 12:41:21;;;;;;;3.33;3.22;;;;;;;8.74;40.76;99058.47;4885445;28;97877;-72
2021/01/29 12:44:05;;;;;;;3.72;3.53;;;;;;;8.69;41.56;99066.16;4885300;28;99737;-74
2021/01/29 12:46:36;;;;;;;3.20;3.20;;;;;;;8.75;40.76;99060.25;4885301;28;97986;-73
2021/01/29 12:49:08;;;;;;;3.95;3.75;;;;;;;8.88;40.73;99052.84;4885742;28;98413;-75
2021/01/29 12:51:38;;;;;;;4.28;4.07;;;;;;;8.90;41.64;99063.34;4881895;28;98434;-72